메인 페이지
METAR-TAF:

METAR-TAF

공항 :

롱뷰, 텍사스, 미국

위도: 32-23-26N, 경도: 094-42-50W, 고도: 111m

현재 날씨관측

예보는 34분 전, 19:53시(UTC)에 발표되었습니다.
남남동4kt
온도 20°C
습도 64%
기압 1018 hPa
시정: 16.1km
고도 1600ft 상공 구름 많음

METAR: KGGG 051953Z 15004KT 10SM BKN016 20/13 A3006 RMK AO2 SLP178 T02000133

시각: 15:27 (20:27 UTC)

예보

예보는 25분 전, 20:02시(UTC)에 발표되었습니다.
예보 대상 시간: 05일 20시부터 06일 18시까지 (UTC)
여러 방향의 바람 3kt
시정: 10km
고도 1500ft 상공 흐림
06일 0000시부터 (UTC)
동북동4kt
시정: 10km
고도 3500ft 상공 흐림
06일 1100시부터 (UTC)
kt
시정: 10km
고도 900ft 상공 구름 많음
06일 1500시부터 (UTC)
kt
시정: 10km
고도 1000ft 상공 구름 많음
06일 1700시부터 (UTC)
여러 방향의 바람 4kt
시정: 10km
고도 2200ft 상공 구름 많음

TAF: KGGG 052002Z 0520/0618 VRB03KT P6SM OVC015 FM060000 07004KT P6SM OVC035 FM061100 00000KT P6SM BKN009 FM061500 00000KT P6SM BKN010 FM061700 VRB04KT P6SM BKN022

4,000개 이상의 공항 관측 자료 및 예보 (METAR 및 TAF 보고).

지도상에서 검색 가능한 기상관측소가 노란 점과 빨간 점으로 표시되어 있습니다.

기상관측소 명을 보려면 표시 위로 마우스를 이동하세요.

날씨 관측과 예보를 보려면 클릭하세요.

지도 변경 : 확대하려면 엑스 표시가 있는 녹색 버튼, 축소하려면 빼기 표시가 있는 녹색 버튼, 다음 페이지의 지도를 보려면 녹색 화살표를 클릭하세요.


METAR-TAF: